sensor_id;sensor_type;location;lat;lon;timestamp;pressure;altitude;pressure_sealevel;temperature;humidity
9091;BME280;4581;42.416;25.598;2022-09-30T00:01:05;97929.63;;;18.16;78.59
9091;BME280;4581;42.416;25.598;2022-09-30T00:03:32;97946.00;;;18.16;79.32
9091;BME280;4581;42.416;25.598;2022-09-30T00:06:19;97954.31;;;18.21;79.31
9091;BME280;4581;42.416;25.598;2022-09-30T00:08:46;97939.59;;;18.10;79.20
9091;BME280;4581;42.416;25.598;2022-09-30T00:11:18;97962.97;;;18.18;79.38
9091;BME280;4581;42.416;25.598;2022-09-30T00:13:50;97954.69;;;18.13;78.96
9091;BME280;4581;42.416;25.598;2022-09-30T00:16:18;97964.50;;;18.14;78.48
9091;BME280;4581;42.416;25.598;2022-09-30T00:18:54;97965.34;;;18.03;78.98
9091;BME280;4581;42.416;25.598;2022-09-30T00:21:21;97963.09;;;18.00;79.53
9091;BME280;4581;42.416;25.598;2022-09-30T00:23:56;97956.66;;;17.94;79.61
9091;BME280;4581;42.416;25.598;2022-09-30T00:26:24;97976.25;;;17.91;79.94
9091;BME280;4581;42.416;25.598;2022-09-30T00:28:53;97950.50;;;17.75;80.24
9091;BME280;4581;42.416;25.598;2022-09-30T00:31:23;97964.34;;;17.74;80.28
9091;BME280;4581;42.416;25.598;2022-09-30T00:33:50;97945.81;;;17.53;80.63
9091;BME280;4581;42.416;25.598;2022-09-30T00:36:51;97978.25;;;17.72;81.61
9091;BME280;4581;42.416;25.598;2022-09-30T00:39:38;97987.13;;;17.80;81.28
9091;BME280;4581;42.416;25.598;2022-09-30T00:42:10;97982.16;;;17.76;80.93
9091;BME280;4581;42.416;25.598;2022-09-30T00:47:51;97994.31;;;17.62;81.47
9091;BME280;4581;42.416;25.598;2022-09-30T00:55:57;97994.41;;;17.56;82.00
9091;BME280;4581;42.416;25.598;2022-09-30T00:58:45;97988.22;;;17.49;81.55
9091;BME280;4581;42.416;25.598;2022-09-30T01:01:15;97997.53;;;17.59;81.18
9091;BME280;4581;42.416;25.598;2022-09-30T01:03:49;97984.88;;;17.47;82.08
9091;BME280;4581;42.416;25.598;2022-09-30T01:06:20;98007.31;;;17.49;82.44
9091;BME280;4581;42.416;25.598;2022-09-30T01:08:49;98006.34;;;17.43;83.02
9091;BME280;4581;42.416;25.598;2022-09-30T01:11:17;98004.09;;;17.40;82.74
9091;BME280;4581;42.416;25.598;2022-09-30T01:13:47;97997.75;;;17.28;82.44
9091;BME280;4581;42.416;25.598;2022-09-30T01:40:05;98033.03;;;17.23;83.36
9091;BME280;4581;42.416;25.598;2022-09-30T01:42:48;98029.63;;;17.27;83.51
9091;BME280;4581;42.416;25.598;2022-09-30T01:45:22;98004.06;;;17.10;83.81
9091;BME280;4581;42.416;25.598;2022-09-30T01:48:02;98030.44;;;17.28;84.22
9091;BME280;4581;42.416;25.598;2022-09-30T01:50:51;98011.69;;;17.20;84.77
9091;BME280;4581;42.416;25.598;2022-09-30T01:53:30;98022.28;;;17.28;84.79
9091;BME280;4581;42.416;25.598;2022-09-30T01:56:38;98014.56;;;17.25;84.86
9091;BME280;4581;42.416;25.598;2022-09-30T01:59:18;97997.19;;;17.08;85.32
9091;BME280;4581;42.416;25.598;2022-09-30T02:01:52;98000.75;;;17.08;85.39
9091;BME280;4581;42.416;25.598;2022-09-30T02:04:30;97999.03;;;17.25;85.36
9091;BME280;4581;42.416;25.598;2022-09-30T02:07:05;98002.38;;;17.27;85.16
9091;BME280;4581;42.416;25.598;2022-09-30T02:09:56;98015.44;;;17.37;85.17
9091;BME280;4581;42.416;25.598;2022-09-30T02:12:32;98007.66;;;17.41;84.97
9091;BME280;4581;42.416;25.598;2022-09-30T02:15:06;98017.25;;;17.43;85.61
9091;BME280;4581;42.416;25.598;2022-09-30T02:17:45;98022.22;;;17.46;85.87
9091;BME280;4581;42.416;25.598;2022-09-30T02:20:35;98012.94;;;17.36;85.79
9091;BME280;4581;42.416;25.598;2022-09-30T02:23:09;98006.06;;;17.33;85.89
9091;BME280;4581;42.416;25.598;2022-09-30T02:25:49;98014.84;;;17.35;86.38
9091;BME280;4581;42.416;25.598;2022-09-30T02:28:22;98030.34;;;17.35;86.41
9091;BME280;4581;42.416;25.598;2022-09-30T02:31:01;98016.22;;;17.26;86.31
9091;BME280;4581;42.416;25.598;2022-09-30T02:33:34;98020.75;;;17.32;86.24
9091;BME280;4581;42.416;25.598;2022-09-30T02:36:23;98022.19;;;17.35;85.89
9091;BME280;4581;42.416;25.598;2022-09-30T02:42:19;98019.31;;;17.29;85.90
9091;BME280;4581;42.416;25.598;2022-09-30T02:44:51;98016.97;;;17.33;85.84
9091;BME280;4581;42.416;25.598;2022-09-30T02:47:29;98019.09;;;17.31;85.54
9091;BME280;4581;42.416;25.598;2022-09-30T02:52:50;98019.19;;;17.24;85.88
9091;BME280;4581;42.416;25.598;2022-09-30T02:55:34;98008.97;;;17.20;86.17
9091;BME280;4581;42.416;25.598;2022-09-30T02:58:18;98022.28;;;17.28;86.14
9091;BME280;4581;42.416;25.598;2022-09-30T03:01:11;98027.13;;;17.26;86.21
9091;BME280;4581;42.416;25.598;2022-09-30T03:06:16;98032.94;;;17.29;86.12
9091;BME280;4581;42.416;25.598;2022-09-30T03:08:43;98031.50;;;17.27;85.92
9091;BME280;4581;42.416;25.598;2022-09-30T03:11:14;98020.09;;;17.18;86.25
9091;BME280;4581;42.416;25.598;2022-09-30T03:30:24;98051.53;;;17.03;87.62
9091;BME280;4581;42.416;25.598;2022-09-30T03:39:07;98057.50;;;16.93;87.49
9091;BME280;4581;42.416;25.598;2022-09-30T03:41:26;98064.38;;;16.96;87.50
9091;BME280;4581;42.416;25.598;2022-09-30T03:44:01;98045.25;;;16.84;87.82
9091;BME280;4581;42.416;25.598;2022-09-30T03:46:40;98070.31;;;16.93;87.83
9091;BME280;4581;42.416;25.598;2022-09-30T03:49:15;98061.06;;;16.75;88.16
9091;BME280;4581;42.416;25.598;2022-09-30T03:51:48;98082.22;;;16.73;88.12
9091;BME280;4581;42.416;25.598;2022-09-30T03:54:16;98066.88;;;16.61;88.56
9091;BME280;4581;42.416;25.598;2022-09-30T03:56:43;98074.50;;;16.70;88.55
9091;BME280;4581;42.416;25.598;2022-09-30T03:59:24;98084.94;;;16.73;88.63
9091;BME280;4581;42.416;25.598;2022-09-30T04:01:51;98052.69;;;16.52;88.85
9091;BME280;4581;42.416;25.598;2022-09-30T04:04:19;98087.53;;;16.68;88.78
9091;BME280;4581;42.416;25.598;2022-09-30T04:06:46;98069.41;;;16.56;89.33
9091;BME280;4581;42.416;25.598;2022-09-30T04:09:13;98089.78;;;16.71;88.85
9091;BME280;4581;42.416;25.598;2022-09-30T04:11:40;98076.56;;;16.50;88.94
9091;BME280;4581;42.416;25.598;2022-09-30T04:14:06;98062.38;;;16.48;89.23
9091;BME280;4581;42.416;25.598;2022-09-30T04:16:33;98077.41;;;16.51;88.95
9091;BME280;4581;42.416;25.598;2022-09-30T04:19:00;98078.44;;;16.50;89.03
9091;BME280;4581;42.416;25.598;2022-09-30T04:21:27;98090.47;;;16.42;89.20
9091;BME280;4581;42.416;25.598;2022-09-30T04:23:54;98090.06;;;16.38;89.31
9091;BME280;4581;42.416;25.598;2022-09-30T04:26:21;98068.59;;;16.30;89.47
9091;BME280;4581;42.416;25.598;2022-09-30T04:28:48;98073.94;;;16.19;89.65
9091;BME280;4581;42.416;25.598;2022-09-30T04:31:15;98073.47;;;16.22;89.49
9091;BME280;4581;42.416;25.598;2022-09-30T04:33:46;98067.16;;;16.28;89.57
9091;BME280;4581;42.416;25.598;2022-09-30T04:36:12;98078.91;;;16.22;89.79
9091;BME280;4581;42.416;25.598;2022-09-30T04:38:39;98083.19;;;16.36;89.48
9091;BME280;4581;42.416;25.598;2022-09-30T04:41:06;98099.25;;;16.44;88.95
9091;BME280;4581;42.416;25.598;2022-09-30T04:43:36;98099.06;;;16.39;89.52
9091;BME280;4581;42.416;25.598;2022-09-30T04:46:02;98104.03;;;16.49;89.94
9091;BME280;4581;42.416;25.598;2022-09-30T04:48:30;98081.53;;;16.35;90.58
9091;BME280;4581;42.416;25.598;2022-09-30T04:50:57;98107.25;;;16.64;90.67
9091;BME280;4581;42.416;25.598;2022-09-30T04:53:28;98109.81;;;16.59;90.32
9091;BME280;4581;42.416;25.598;2022-09-30T04:56:00;98107.91;;;16.59;90.76
9091;BME280;4581;42.416;25.598;2022-09-30T04:58:27;98116.38;;;16.69;91.09
9091;BME280;4581;42.416;25.598;2022-09-30T05:01:05;98128.66;;;16.78;90.99
9091;BME280;4581;42.416;25.598;2022-09-30T05:03:33;98125.66;;;16.87;90.49
9091;BME280;4581;42.416;25.598;2022-09-30T05:06:00;98098.16;;;16.70;90.68
9091;BME280;4581;42.416;25.598;2022-09-30T05:08:27;98116.72;;;16.79;90.13
9091;BME280;4581;42.416;25.598;2022-09-30T05:10:59;98126.56;;;16.99;90.34
9091;BME280;4581;42.416;25.598;2022-09-30T05:13:33;98143.81;;;17.11;90.64
9091;BME280;4581;42.416;25.598;2022-09-30T05:16:00;98139.50;;;17.21;90.40
9091;BME280;4581;42.416;25.598;2022-09-30T05:18:29;98146.56;;;17.29;90.09
9091;BME280;4581;42.416;25.598;2022-09-30T05:20:56;98136.88;;;17.33;89.84
9091;BME280;4581;42.416;25.598;2022-09-30T05:23:24;98145.78;;;17.58;89.56
9091;BME280;4581;42.416;25.598;2022-09-30T05:26:00;98144.41;;;17.67;89.57
9091;BME280;4581;42.416;25.598;2022-09-30T05:28:27;98132.34;;;17.75;88.76
9091;BME280;4581;42.416;25.598;2022-09-30T05:30:58;98156.56;;;18.01;87.86
9091;BME280;4581;42.416;25.598;2022-09-30T05:33:28;98143.16;;;18.11;87.93
9091;BME280;4581;42.416;25.598;2022-09-30T05:35:58;98109.38;;;18.12;86.70
9091;BME280;4581;42.416;25.598;2022-09-30T05:38:26;98118.31;;;18.43;84.90
9091;BME280;4581;42.416;25.598;2022-09-30T05:40:53;98159.94;;;18.80;84.24
9091;BME280;4581;42.416;25.598;2022-09-30T05:43:21;98176.09;;;19.04;83.32
9091;BME280;4581;42.416;25.598;2022-09-30T05:45:55;98172.97;;;19.24;82.53
9091;BME280;4581;42.416;25.598;2022-09-30T05:48:24;98181.06;;;19.42;81.50
9091;BME280;4581;42.416;25.598;2022-09-30T05:50:56;98173.78;;;19.59;80.33
9091;BME280;4581;42.416;25.598;2022-09-30T05:53:24;98177.16;;;19.78;79.61
9091;BME280;4581;42.416;25.598;2022-09-30T05:55:51;98173.19;;;19.97;78.64
9091;BME280;4581;42.416;25.598;2022-09-30T05:58:19;98166.97;;;20.02;78.17
9091;BME280;4581;42.416;25.598;2022-09-30T06:00:47;98177.31;;;20.28;77.72
9091;BME280;4581;42.416;25.598;2022-09-30T06:03:16;98180.94;;;20.45;76.66
9091;BME280;4581;42.416;25.598;2022-09-30T06:05:44;98183.59;;;20.57;76.38
9091;BME280;4581;42.416;25.598;2022-09-30T06:08:14;98197.56;;;20.72;75.96
9091;BME280;4581;42.416;25.598;2022-09-30T06:10:44;98208.03;;;20.92;75.01
9091;BME280;4581;42.416;25.598;2022-09-30T06:13:15;98212.50;;;20.98;76.11
9091;BME280;4581;42.416;25.598;2022-09-30T06:15:43;98206.56;;;21.18;75.24
9091;BME280;4581;42.416;25.598;2022-09-30T06:18:11;98198.13;;;21.24;74.47
9091;BME280;4581;42.416;25.598;2022-09-30T06:20:43;98198.31;;;21.18;75.23
9091;BME280;4581;42.416;25.598;2022-09-30T06:23:09;98199.91;;;21.52;74.54
9091;BME280;4581;42.416;25.598;2022-09-30T06:25:36;98181.16;;;21.66;72.42
9091;BME280;4581;42.416;25.598;2022-09-30T06:28:03;98176.41;;;21.83;71.58
9091;BME280;4581;42.416;25.598;2022-09-30T06:30:31;98204.66;;;22.22;69.05
9091;BME280;4581;42.416;25.598;2022-09-30T06:33:05;98210.13;;;22.22;67.50
9091;BME280;4581;42.416;25.598;2022-09-30T06:35:32;98211.59;;;22.29;66.51
9091;BME280;4581;42.416;25.598;2022-09-30T06:38:02;98179.50;;;22.08;66.69
9091;BME280;4581;42.416;25.598;2022-09-30T06:40:37;98221.44;;;22.25;66.75
9091;BME280;4581;42.416;25.598;2022-09-30T06:43:04;98222.97;;;22.43;65.67
9091;BME280;4581;42.416;25.598;2022-09-30T06:45:30;98208.00;;;22.56;66.71
9091;BME280;4581;42.416;25.598;2022-09-30T06:48:00;98224.72;;;22.76;65.99
9091;BME280;4581;42.416;25.598;2022-09-30T06:50:29;98234.69;;;22.82;64.95
9091;BME280;4581;42.416;25.598;2022-09-30T06:53:00;98238.03;;;22.89;65.62
9091;BME280;4581;42.416;25.598;2022-09-30T06:55:29;98235.06;;;22.96;65.07
9091;BME280;4581;42.416;25.598;2022-09-30T06:57:56;98221.00;;;22.92;66.27
9091;BME280;4581;42.416;25.598;2022-09-30T07:00:24;98253.69;;;23.20;64.40
9091;BME280;4581;42.416;25.598;2022-09-30T07:02:56;98267.03;;;23.02;64.50
9091;BME280;4581;42.416;25.598;2022-09-30T07:05:23;98266.31;;;23.16;64.95
9091;BME280;4581;42.416;25.598;2022-09-30T07:07:57;98227.34;;;22.93;65.97
9091;BME280;4581;42.416;25.598;2022-09-30T07:10:24;98246.50;;;23.19;66.04
9091;BME280;4581;42.416;25.598;2022-09-30T07:12:52;98242.78;;;23.30;64.42
9091;BME280;4581;42.416;25.598;2022-09-30T07:15:22;98236.59;;;23.13;66.39
9091;BME280;4581;42.416;25.598;2022-09-30T07:17:52;98274.84;;;23.52;64.91
9091;BME280;4581;42.416;25.598;2022-09-30T07:20:19;98269.44;;;23.62;63.99
9091;BME280;4581;42.416;25.598;2022-09-30T07:22:46;98278.94;;;23.86;62.58
9091;BME280;4581;42.416;25.598;2022-09-30T07:25:13;98239.72;;;23.69;62.08
9091;BME280;4581;42.416;25.598;2022-09-30T07:27:40;98287.66;;;24.15;61.73
9091;BME280;4581;42.416;25.598;2022-09-30T07:30:09;98288.97;;;24.12;62.85
9091;BME280;4581;42.416;25.598;2022-09-30T07:32:49;98286.81;;;24.19;61.68
9091;BME280;4581;42.416;25.598;2022-09-30T07:35:19;98288.66;;;23.99;60.21
9091;BME280;4581;42.416;25.598;2022-09-30T07:37:46;98283.66;;;23.96;59.98
9091;BME280;4581;42.416;25.598;2022-09-30T07:40:13;98276.28;;;24.11;61.12
9091;BME280;4581;42.416;25.598;2022-09-30T07:42:40;98280.00;;;24.27;61.14
9091;BME280;4581;42.416;25.598;2022-09-30T07:45:12;98288.78;;;24.19;61.85
9091;BME280;4581;42.416;25.598;2022-09-30T07:47:42;98292.34;;;24.14;60.88
9091;BME280;4581;42.416;25.598;2022-09-30T07:50:09;98289.06;;;24.22;59.94
9091;BME280;4581;42.416;25.598;2022-09-30T07:52:38;98246.56;;;24.13;60.43
9091;BME280;4581;42.416;25.598;2022-09-30T07:55:05;98285.56;;;24.47;59.92
9091;BME280;4581;42.416;25.598;2022-09-30T07:57:32;98273.34;;;24.28;60.12
9091;BME280;4581;42.416;25.598;2022-09-30T07:59:59;98292.16;;;24.41;60.21
9091;BME280;4581;42.416;25.598;2022-09-30T08:02:45;98293.56;;;24.49;59.50
9091;BME280;4581;42.416;25.598;2022-09-30T08:05:14;98306.59;;;24.74;59.87
9091;BME280;4581;42.416;25.598;2022-09-30T08:07:41;98291.84;;;24.33;61.59
9091;BME280;4581;42.416;25.598;2022-09-30T08:10:08;98302.38;;;24.56;60.91
9091;BME280;4581;42.416;25.598;2022-09-30T08:12:36;98280.84;;;24.38;58.60
9091;BME280;4581;42.416;25.598;2022-09-30T08:15:05;98309.97;;;24.18;60.37
9091;BME280;4581;42.416;25.598;2022-09-30T08:17:34;98308.00;;;24.14;61.56
9091;BME280;4581;42.416;25.598;2022-09-30T08:20:01;98306.25;;;23.98;63.05
9091;BME280;4581;42.416;25.598;2022-09-30T08:22:29;98312.50;;;24.30;59.66
9091;BME280;4581;42.416;25.598;2022-09-30T08:24:57;98332.69;;;24.46;60.54
9091;BME280;4581;42.416;25.598;2022-09-30T08:27:23;98284.16;;;24.40;59.10
9091;BME280;4581;42.416;25.598;2022-09-30T08:29:55;98322.81;;;24.55;59.44
9091;BME280;4581;42.416;25.598;2022-09-30T08:32:32;98294.06;;;24.36;60.70
9091;BME280;4581;42.416;25.598;2022-09-30T08:35:12;98331.16;;;24.75;59.89
9091;BME280;4581;42.416;25.598;2022-09-30T08:37:39;98326.78;;;24.89;58.63
9091;BME280;4581;42.416;25.598;2022-09-30T08:40:06;98325.91;;;24.79;58.80
9091;BME280;4581;42.416;25.598;2022-09-30T08:42:43;98335.91;;;25.05;59.80
9091;BME280;4581;42.416;25.598;2022-09-30T08:53:47;98323.97;;;24.84;57.50
9091;BME280;4581;42.416;25.598;2022-09-30T08:56:26;98341.97;;;24.87;60.25
9091;BME280;4581;42.416;25.598;2022-09-30T08:59:06;98341.41;;;25.00;58.29
9091;BME280;4581;42.416;25.598;2022-09-30T09:01:46;98333.75;;;25.37;58.48
9091;BME280;4581;42.416;25.598;2022-09-30T09:04:14;98317.44;;;25.36;59.28
9091;BME280;4581;42.416;25.598;2022-09-30T09:06:45;98339.28;;;25.73;57.51
9091;BME280;4581;42.416;25.598;2022-09-30T09:24:02;98341.47;;;25.86;53.03
9091;BME280;4581;42.416;25.598;2022-09-30T09:26:34;98315.25;;;25.68;53.13
9091;BME280;4581;42.416;25.598;2022-09-30T09:31:41;98330.34;;;26.16;54.10
9091;BME280;4581;42.416;25.598;2022-09-30T09:34:10;98341.94;;;26.28;51.70
9091;BME280;4581;42.416;25.598;2022-09-30T09:45:24;98360.59;;;27.21;49.37
9091;BME280;4581;42.416;25.598;2022-09-30T09:47:52;98360.44;;;27.41;48.13
9091;BME280;4581;42.416;25.598;2022-09-30T09:50:28;98337.53;;;27.35;48.79
9091;BME280;4581;42.416;25.598;2022-09-30T09:55:52;98350.25;;;28.04;49.02
9091;BME280;4581;42.416;25.598;2022-09-30T09:58:20;98336.72;;;27.98;49.75
9091;BME280;4581;42.416;25.598;2022-09-30T10:00:47;98323.53;;;28.13;48.59
9091;BME280;4581;42.416;25.598;2022-09-30T10:03:17;98324.84;;;28.45;47.03
9091;BME280;4581;42.416;25.598;2022-09-30T10:06:09;98346.63;;;28.56;45.65
9091;BME280;4581;42.416;25.598;2022-09-30T10:08:52;98344.19;;;28.73;45.29
9091;BME280;4581;42.416;25.598;2022-09-30T10:11:23;98335.28;;;28.76;45.20
9091;BME280;4581;42.416;25.598;2022-09-30T10:13:55;98341.91;;;28.80;44.54
9091;BME280;4581;42.416;25.598;2022-09-30T10:16:40;98339.44;;;29.16;43.49
9091;BME280;4581;42.416;25.598;2022-09-30T10:19:20;98340.03;;;28.95;43.85
9091;BME280;4581;42.416;25.598;2022-09-30T10:21:48;98314.22;;;28.75;43.35
9091;BME280;4581;42.416;25.598;2022-09-30T10:24:36;98338.53;;;29.02;44.79
9091;BME280;4581;42.416;25.598;2022-09-30T10:27:03;98323.97;;;29.10;42.57
9091;BME280;4581;42.416;25.598;2022-09-30T10:29:33;98317.88;;;29.46;41.96
9091;BME280;4581;42.416;25.598;2022-09-30T10:32:02;98318.69;;;29.65;42.91
9091;BME280;4581;42.416;25.598;2022-09-30T10:34:37;98327.47;;;29.86;42.32
9091;BME280;4581;42.416;25.598;2022-09-30T10:37:19;98322.72;;;30.05;41.10
9091;BME280;4581;42.416;25.598;2022-09-30T10:39:56;98311.56;;;29.91;42.06
9091;BME280;4581;42.416;25.598;2022-09-30T10:42:26;98323.63;;;29.82;40.66
9091;BME280;4581;42.416;25.598;2022-09-30T10:44:58;98325.38;;;29.64;42.70
9091;BME280;4581;42.416;25.598;2022-09-30T10:47:28;98319.31;;;29.75;44.59
9091;BME280;4581;42.416;25.598;2022-09-30T10:50:14;98332.19;;;30.17;41.29
9091;BME280;4581;42.416;25.598;2022-09-30T10:53:10;98328.09;;;30.56;40.22
9091;BME280;4581;42.416;25.598;2022-09-30T10:55:42;98313.00;;;30.84;39.17
9091;BME280;4581;42.416;25.598;2022-09-30T10:58:44;98328.81;;;31.25;38.54
9091;BME280;4581;42.416;25.598;2022-09-30T11:01:24;98333.00;;;31.36;38.48
9091;BME280;4581;42.416;25.598;2022-09-30T11:06:50;98318.81;;;31.24;38.25
9091;BME280;4581;42.416;25.598;2022-09-30T11:10:05;98320.13;;;31.26;37.67
9091;BME280;4581;42.416;25.598;2022-09-30T11:12:50;98302.38;;;31.00;37.78
9091;BME280;4581;42.416;25.598;2022-09-30T11:15:28;98312.88;;;31.03;37.48
9091;BME280;4581;42.416;25.598;2022-09-30T11:43:25;98307.50;;;34.20;31.98
9091;BME280;4581;42.416;25.598;2022-09-30T11:52:15;98319.44;;;36.82;24.24
9091;BME280;4581;42.416;25.598;2022-09-30T11:58:07;98318.78;;;37.92;22.10
9091;BME280;4581;42.416;25.598;2022-09-30T12:00:59;98308.78;;;38.85;20.40
9091;BME280;4581;42.416;25.598;2022-09-30T12:03:42;98327.81;;;39.78;21.32
9091;BME280;4581;42.416;25.598;2022-09-30T12:06:27;98332.03;;;41.24;20.63
9091;BME280;4581;42.416;25.598;2022-09-30T12:09:22;98326.41;;;42.20;18.74
9091;BME280;4581;42.416;25.598;2022-09-30T12:12:17;98328.47;;;43.15;17.42
9091;BME280;4581;42.416;25.598;2022-09-30T12:14:52;98332.88;;;43.77;18.20
9091;BME280;4581;42.416;25.598;2022-09-30T12:20:28;98326.63;;;40.89;20.50
9091;BME280;4581;42.416;25.598;2022-09-30T12:23:08;98318.50;;;39.96;20.52
9091;BME280;4581;42.416;25.598;2022-09-30T12:25:41;98297.59;;;37.67;21.14
9091;BME280;4581;42.416;25.598;2022-09-30T12:28:20;98299.31;;;37.72;22.04
9091;BME280;4581;42.416;25.598;2022-09-30T12:34:01;98315.69;;;38.10;22.31
9091;BME280;4581;42.416;25.598;2022-09-30T12:47:40;98322.88;;;38.07;21.19
9091;BME280;4581;42.416;25.598;2022-09-30T12:50:21;98335.34;;;38.84;21.39
9091;BME280;4581;42.416;25.598;2022-09-30T12:52:55;98335.69;;;39.88;20.45
9091;BME280;4581;42.416;25.598;2022-09-30T12:55:31;98326.88;;;41.03;18.47
9091;BME280;4581;42.416;25.598;2022-09-30T12:58:04;98322.00;;;39.32;19.49
9091;BME280;4581;42.416;25.598;2022-09-30T13:00:33;98315.16;;;35.70;23.45
9091;BME280;4581;42.416;25.598;2022-09-30T13:03:07;98291.69;;;33.69;26.43
9091;BME280;4581;42.416;25.598;2022-09-30T13:08:22;98309.44;;;32.57;29.37
9091;BME280;4581;42.416;25.598;2022-09-30T13:10:58;98303.00;;;31.77;29.75
9091;BME280;4581;42.416;25.598;2022-09-30T13:13:27;98299.81;;;31.26;29.85
9091;BME280;4581;42.416;25.598;2022-09-30T13:16:00;98306.06;;;31.09;32.24
9091;BME280;4581;42.416;25.598;2022-09-30T13:34:22;98304.94;;;29.55;34.28
9091;BME280;4581;42.416;25.598;2022-09-30T13:39:44;98302.50;;;29.35;33.71
9091;BME280;4581;42.416;25.598;2022-09-30T13:47:37;98300.66;;;29.25;33.78
9091;BME280;4581;42.416;25.598;2022-09-30T13:50:28;98299.72;;;29.16;33.03
9091;BME280;4581;42.416;25.598;2022-09-30T13:53:00;98302.13;;;29.04;35.37
9091;BME280;4581;42.416;25.598;2022-09-30T13:55:43;98302.28;;;28.94;33.88
9091;BME280;4581;42.416;25.598;2022-09-30T14:01:21;98267.38;;;28.69;33.31
9091;BME280;4581;42.416;25.598;2022-09-30T14:12:52;98311.69;;;28.55;33.78
9091;BME280;4581;42.416;25.598;2022-09-30T14:15:44;98316.56;;;28.63;33.27
9091;BME280;4581;42.416;25.598;2022-09-30T14:21:33;98323.28;;;28.57;33.17
9091;BME280;4581;42.416;25.598;2022-09-30T14:24:08;98315.72;;;28.63;32.86
9091;BME280;4581;42.416;25.598;2022-09-30T14:29:38;98322.47;;;28.57;32.84
9091;BME280;4581;42.416;25.598;2022-09-30T14:32:19;98325.00;;;28.53;33.91
9091;BME280;4581;42.416;25.598;2022-09-30T14:34:48;98300.88;;;28.30;34.35
9091;BME280;4581;42.416;25.598;2022-09-30T14:37:29;98329.41;;;28.35;33.22
9091;BME280;4581;42.416;25.598;2022-09-30T14:39:56;98312.34;;;28.23;34.81
9091;BME280;4581;42.416;25.598;2022-09-30T14:42:35;98322.00;;;28.26;34.66
9091;BME280;4581;42.416;25.598;2022-09-30T14:45:26;98336.72;;;28.26;33.30
9091;BME280;4581;42.416;25.598;2022-09-30T14:48:03;98328.19;;;28.18;33.38
9091;BME280;4581;42.416;25.598;2022-09-30T14:50:40;98338.00;;;28.10;34.89
9091;BME280;4581;42.416;25.598;2022-09-30T14:53:34;98337.72;;;28.07;34.66
9091;BME280;4581;42.416;25.598;2022-09-30T14:56:02;98327.03;;;27.95;32.94
9091;BME280;4581;42.416;25.598;2022-09-30T14:58:40;98350.75;;;28.11;33.72
9091;BME280;4581;42.416;25.598;2022-09-30T15:01:16;98340.84;;;28.00;33.99
9091;BME280;4581;42.416;25.598;2022-09-30T15:03:53;98341.56;;;27.82;34.85
9091;BME280;4581;42.416;25.598;2022-09-30T15:06:25;98353.28;;;27.74;35.91
9091;BME280;4581;42.416;25.598;2022-09-30T15:09:15;98353.16;;;27.60;36.46
9091;BME280;4581;42.416;25.598;2022-09-30T15:11:44;98334.16;;;27.43;36.13
9091;BME280;4581;42.416;25.598;2022-09-30T15:14:21;98353.50;;;27.49;36.12
9091;BME280;4581;42.416;25.598;2022-09-30T15:16:56;98346.94;;;27.34;36.82
9091;BME280;4581;42.416;25.598;2022-09-30T15:19:42;98354.78;;;27.22;38.53
9091;BME280;4581;42.416;25.598;2022-09-30T15:22:10;98337.81;;;26.95;38.92
9091;BME280;4581;42.416;25.598;2022-09-30T15:24:41;98342.28;;;26.86;38.81
9091;BME280;4581;42.416;25.598;2022-09-30T15:27:18;98360.25;;;26.88;41.02
9091;BME280;4581;42.416;25.598;2022-09-30T15:29:54;98332.19;;;26.51;40.39
9091;BME280;4581;42.416;25.598;2022-09-30T15:32:22;98359.22;;;26.64;40.71
9091;BME280;4581;42.416;25.598;2022-09-30T15:34:51;98352.41;;;26.41;41.23
9091;BME280;4581;42.416;25.598;2022-09-30T15:37:23;98369.59;;;26.33;41.34
9091;BME280;4581;42.416;25.598;2022-09-30T15:39:52;98346.13;;;26.05;42.21
9091;BME280;4581;42.416;25.598;2022-09-30T15:42:55;98362.72;;;26.05;42.00
9091;BME280;4581;42.416;25.598;2022-09-30T15:45:30;98366.88;;;25.93;42.86
9091;BME280;4581;42.416;25.598;2022-09-30T15:48:30;98358.31;;;25.84;42.94
9091;BME280;4581;42.416;25.598;2022-09-30T15:50:54;98372.16;;;25.74;43.40
9091;BME280;4581;42.416;25.598;2022-09-30T15:56:35;98376.00;;;25.43;43.70
9091;BME280;4581;42.416;25.598;2022-09-30T15:59:10;98380.94;;;25.36;43.49
9091;BME280;4581;42.416;25.598;2022-09-30T16:01:46;98374.31;;;25.27;43.77
9091;BME280;4581;42.416;25.598;2022-09-30T16:06:59;98385.84;;;25.08;43.95
9091;BME280;4581;42.416;25.598;2022-09-30T16:09:37;98381.16;;;24.99;44.18
9091;BME280;4581;42.416;25.598;2022-09-30T16:14:44;98385.78;;;24.83;44.84
9091;BME280;4581;42.416;25.598;2022-09-30T16:17:26;98398.97;;;24.76;45.63
9091;BME280;4581;42.416;25.598;2022-09-30T16:20:18;98398.94;;;24.66;45.78
9091;BME280;4581;42.416;25.598;2022-09-30T16:25:30;98399.69;;;24.46;45.83
9091;BME280;4581;42.416;25.598;2022-09-30T16:30:29;98409.25;;;24.34;44.73
9091;BME280;4581;42.416;25.598;2022-09-30T16:32:58;98398.75;;;24.26;44.85
9091;BME280;4581;42.416;25.598;2022-09-30T16:35:28;98410.88;;;24.30;44.54
9091;BME280;4581;42.416;25.598;2022-09-30T16:38:03;98408.97;;;24.30;44.58
9091;BME280;4581;42.416;25.598;2022-09-30T16:40:31;98412.00;;;24.34;44.41
9091;BME280;4581;42.416;25.598;2022-09-30T16:43:08;98401.75;;;24.24;43.80
9091;BME280;4581;42.416;25.598;2022-09-30T16:45:37;98411.69;;;24.25;44.53
9091;BME280;4581;42.416;25.598;2022-09-30T16:48:14;98408.63;;;24.21;44.86
9091;BME280;4581;42.416;25.598;2022-09-30T16:51:08;98419.94;;;24.25;44.80
9091;BME280;4581;42.416;25.598;2022-09-30T16:53:37;98420.72;;;24.15;45.01
9091;BME280;4581;42.416;25.598;2022-09-30T16:56:03;98391.38;;;23.99;44.92
9091;BME280;4581;42.416;25.598;2022-09-30T16:58:31;98428.16;;;24.15;45.03
9091;BME280;4581;42.416;25.598;2022-09-30T17:00:57;98390.28;;;24.00;44.81
9091;BME280;4581;42.416;25.598;2022-09-30T17:03:28;98393.81;;;23.96;44.89
9091;BME280;4581;42.416;25.598;2022-09-30T17:05:56;98408.47;;;24.01;45.19
9091;BME280;4581;42.416;25.598;2022-09-30T17:08:25;98383.31;;;23.88;45.39
9091;BME280;4581;42.416;25.598;2022-09-30T17:10:51;98418.94;;;24.04;45.62
9091;BME280;4581;42.416;25.598;2022-09-30T17:13:18;98410.03;;;23.87;45.56
9091;BME280;4581;42.416;25.598;2022-09-30T17:15:52;98408.41;;;23.91;44.88
9091;BME280;4581;42.416;25.598;2022-09-30T17:18:24;98428.31;;;24.03;45.49